createdAt,value
2022-12-25T00:02:48.364Z,93.62
2022-12-25T00:07:44.956Z,93.46
2022-12-25T00:12:41.885Z,94.35
2022-12-25T00:17:38.388Z,93.74
2022-12-25T00:22:35.645Z,93.90
2022-12-25T00:27:32.644Z,93.91
2022-12-25T00:32:29.205Z,93.99
2022-12-25T00:37:25.755Z,93.68
2022-12-25T00:42:24.382Z,93.73
2022-12-25T00:47:20.987Z,94.73
2022-12-25T00:52:17.620Z,95.70
2022-12-25T00:57:14.191Z,94.06
2022-12-25T01:02:24.108Z,94.98
2022-12-25T01:07:21.110Z,94.35
2022-12-25T01:12:17.707Z,94.14
2022-12-25T01:17:15.155Z,94.56
2022-12-25T01:22:11.754Z,94.05
2022-12-25T01:27:09.592Z,93.89
2022-12-25T01:32:06.573Z,94.01
2022-12-25T01:37:03.822Z,95.21
2022-12-25T01:42:00.348Z,94.02
2022-12-25T01:46:59.436Z,93.86
2022-12-25T01:51:58.672Z,92.96
2022-12-25T01:57:00.416Z,93.77
2022-12-25T02:01:57.506Z,93.58
2022-12-25T02:06:54.465Z,93.77
2022-12-25T02:11:56.903Z,93.74
2022-12-25T02:16:59.146Z,93.41
2022-12-25T02:21:59.863Z,93.62
2022-12-25T02:27:14.516Z,93.68
2022-12-25T02:32:15.452Z,92.86
2022-12-25T02:37:16.546Z,92.82
2022-12-25T02:42:16.070Z,92.34
2022-12-25T02:47:32.314Z,92.67
2022-12-25T02:52:56.939Z,93.50
2022-12-25T02:58:14.467Z,95.14
2022-12-25T03:03:40.127Z,95.61
2022-12-25T03:08:40.390Z,95.13
2022-12-25T03:13:40.025Z,94.95
2022-12-25T03:18:37.404Z,96.22
2022-12-25T03:23:52.982Z,95.94
2022-12-25T03:28:49.570Z,96.13
2022-12-25T03:34:10.319Z,95.42
2022-12-25T03:39:29.217Z,96.21
2022-12-25T03:44:48.525Z,96.56
2022-12-25T03:50:07.590Z,95.58
2022-12-25T03:55:25.199Z,96.52
2022-12-25T04:00:40.126Z,96.03
2022-12-25T04:05:55.996Z,95.17
2022-12-25T04:11:10.947Z,95.54
2022-12-25T04:16:25.881Z,95.49
2022-12-25T04:21:41.485Z,94.56
2022-12-25T04:26:56.244Z,95.69
2022-12-25T04:32:13.248Z,94.94
2022-12-25T04:37:10.495Z,96.00
2022-12-25T04:42:07.160Z,95.67
2022-12-25T04:47:09.282Z,95.37
2022-12-25T04:52:07.991Z,96.25
2022-12-25T04:57:05.301Z,95.65
2022-12-25T05:02:01.996Z,95.57
2022-12-25T05:07:03.260Z,95.03
2022-12-25T05:12:00.047Z,95.05
2022-12-25T05:16:57.442Z,93.89
2022-12-25T05:21:53.996Z,94.46
2022-12-25T05:26:52.844Z,94.94
2022-12-25T05:31:49.410Z,94.21
2022-12-25T05:36:46.712Z,95.12
2022-12-25T05:41:43.211Z,94.80
2022-12-25T05:46:39.964Z,95.88
2022-12-25T05:51:36.621Z,95.88
2022-12-25T05:56:35.277Z,95.78
2022-12-25T06:01:31.904Z,95.01
2022-12-25T06:06:28.467Z,94.44
2022-12-25T06:11:25.958Z,94.85
2022-12-25T06:16:23.263Z,94.81
2022-12-25T06:21:19.928Z,94.77
2022-12-25T06:26:19.478Z,95.11
2022-12-25T06:31:18.411Z,94.63
2022-12-25T06:36:17.284Z,95.22
2022-12-25T06:41:15.131Z,95.75
2022-12-25T06:46:16.247Z,94.91
2022-12-25T06:51:16.046Z,94.52
2022-12-25T06:56:15.458Z,94.04
2022-12-25T07:01:16.588Z,92.83
2022-12-25T07:06:15.268Z,93.53
2022-12-25T07:11:12.070Z,93.46
2022-12-25T07:16:10.526Z,92.11
2022-12-25T07:21:08.052Z,91.84
2022-12-25T07:26:04.919Z,90.92
2022-12-25T07:31:02.797Z,89.51
2022-12-25T07:36:07.118Z,89.14
2022-12-25T07:41:04.527Z,89.29
2022-12-25T07:46:01.608Z,88.51
2022-12-25T07:51:01.107Z,88.44
2022-12-25T07:56:01.016Z,88.36
2022-12-25T08:01:02.304Z,88.77
2022-12-25T08:06:00.154Z,89.50
2022-12-25T08:10:56.714Z,88.64
2022-12-25T08:15:58.074Z,88.06
2022-12-25T08:21:04.905Z,87.75
2022-12-25T08:26:05.382Z,88.12
2022-12-25T08:31:09.006Z,88.89
2022-12-25T08:36:07.090Z,88.84
2022-12-25T08:41:03.824Z,88.79
2022-12-25T08:46:00.950Z,88.10
2022-12-25T08:50:58.246Z,87.62
2022-12-25T08:56:03.806Z,87.17
2022-12-25T09:01:00.637Z,87.04
2022-12-25T09:06:01.840Z,86.92
2022-12-25T09:11:02.241Z,87.39
2022-12-25T09:15:59.592Z,86.78
2022-12-25T09:21:00.623Z,87.28
2022-12-25T09:25:58.349Z,87.29
2022-12-25T09:30:55.386Z,88.58
2022-12-25T09:35:55.672Z,88.93
2022-12-25T09:40:59.995Z,88.80
2022-12-25T09:45:57.820Z,87.66
2022-12-25T09:50:58.418Z,87.29
2022-12-25T09:55:58.846Z,87.70
2022-12-25T10:01:06.411Z,87.31
2022-12-25T10:06:10.423Z,86.29
2022-12-25T10:11:16.092Z,85.86
2022-12-25T10:16:21.543Z,86.14
2022-12-25T10:21:19.483Z,84.56
2022-12-25T10:26:17.059Z,84.09
2022-12-25T10:31:25.559Z,82.82
2022-12-25T10:36:23.336Z,84.32
2022-12-25T10:41:29.038Z,84.52
2022-12-25T10:46:27.688Z,84.43
2022-12-25T10:51:29.431Z,83.83
2022-12-25T10:56:26.701Z,82.59
2022-12-25T11:01:27.846Z,83.44
2022-12-25T11:06:26.266Z,82.83
2022-12-25T11:11:23.021Z,82.86
2022-12-25T11:16:29.317Z,81.38
2022-12-25T11:21:29.834Z,82.24
2022-12-25T11:26:29.559Z,81.05
2022-12-25T11:31:31.465Z,81.24
2022-12-25T11:36:31.474Z,80.65
2022-12-25T11:41:32.308Z,79.49
2022-12-25T11:46:31.976Z,80.35
2022-12-25T11:51:33.497Z,80.65
2022-12-25T11:56:30.989Z,79.18
2022-12-25T12:01:31.243Z,79.13
2022-12-25T12:06:30.793Z,81.53
2022-12-25T12:11:32.347Z,81.86
2022-12-25T12:16:29.563Z,80.88
2022-12-25T12:21:28.228Z,79.20
2022-12-25T12:26:28.718Z,80.29
2022-12-25T12:31:42.228Z,80.27
2022-12-25T12:36:45.773Z,79.86
2022-12-25T12:41:44.740Z,80.05
2022-12-25T12:46:52.037Z,80.00
2022-12-25T12:51:49.324Z,81.08
2022-12-25T12:56:58.847Z,81.00
2022-12-25T13:02:07.895Z,80.88
2022-12-25T13:07:10.768Z,81.34
2022-12-25T13:12:07.676Z,80.99
2022-12-25T13:17:10.016Z,80.81
2022-12-25T13:22:09.436Z,80.95
2022-12-25T13:27:21.089Z,81.58
2022-12-25T13:32:25.535Z,81.87
2022-12-25T13:37:23.155Z,81.38
2022-12-25T13:42:21.285Z,82.23
2022-12-25T13:47:20.764Z,82.79
2022-12-25T13:52:18.534Z,81.82
2022-12-25T13:57:18.208Z,82.91
2022-12-25T14:02:19.101Z,82.73
2022-12-25T14:07:21.862Z,82.17
2022-12-25T14:12:22.539Z,82.88
2022-12-25T14:17:19.383Z,83.63
2022-12-25T14:22:21.071Z,83.52
2022-12-25T14:27:21.151Z,83.71
2022-12-25T14:32:19.664Z,84.60
2022-12-25T14:37:17.918Z,84.67
2022-12-25T14:42:20.738Z,85.41
2022-12-25T14:47:18.557Z,85.08
2022-12-25T14:52:17.064Z,84.49
2022-12-25T14:57:18.005Z,84.99
2022-12-25T15:02:19.154Z,84.86
2022-12-25T15:07:26.786Z,85.49
2022-12-25T15:12:25.121Z,85.10
2022-12-25T15:17:26.820Z,85.82
2022-12-25T15:22:25.754Z,86.62
2022-12-25T15:27:23.314Z,86.07
2022-12-25T15:32:24.612Z,85.88
2022-12-25T15:37:21.245Z,85.69
2022-12-25T15:42:21.228Z,86.70
2022-12-25T15:47:19.387Z,87.87
2022-12-25T15:52:17.519Z,87.08
2022-12-25T15:57:16.402Z,86.83
2022-12-25T16:02:14.482Z,87.33
2022-12-25T16:07:14.233Z,87.19
2022-12-25T16:12:14.258Z,88.49
2022-12-25T16:17:15.582Z,87.56
2022-12-25T16:22:15.424Z,87.87
2022-12-25T16:27:16.036Z,87.26
2022-12-25T16:32:17.133Z,87.93
2022-12-25T16:37:16.055Z,88.46
2022-12-25T16:42:13.481Z,88.84
2022-12-25T16:47:10.232Z,89.66
2022-12-25T16:52:09.245Z,88.65
2022-12-25T16:57:06.384Z,89.15
2022-12-25T17:02:14.821Z,89.73
2022-12-25T17:07:11.854Z,89.52
2022-12-25T17:12:09.050Z,88.99
2022-12-25T17:17:06.281Z,88.78
2022-12-25T17:22:03.265Z,90.35
2022-12-25T17:26:59.845Z,89.83
2022-12-25T17:31:58.784Z,89.64
2022-12-25T17:36:58.444Z,90.20
2022-12-25T17:41:54.971Z,90.18
2022-12-25T17:46:51.608Z,90.70
2022-12-25T17:51:48.980Z,89.93
2022-12-25T17:56:49.766Z,88.93
2022-12-25T18:01:47.443Z,89.10
2022-12-25T18:06:44.160Z,89.32
2022-12-25T18:11:42.310Z,89.53
2022-12-25T18:16:40.144Z,88.89
2022-12-25T18:21:37.243Z,88.59
2022-12-25T18:26:34.279Z,88.46
2022-12-25T18:31:32.726Z,87.91
2022-12-25T18:36:37.311Z,87.63
2022-12-25T18:41:53.959Z,88.46
2022-12-25T18:46:50.551Z,89.16
2022-12-25T18:51:49.258Z,89.07
2022-12-25T18:56:53.230Z,89.07
2022-12-25T19:01:50.577Z,88.40
2022-12-25T19:06:48.684Z,88.06
2022-12-25T19:11:46.924Z,88.25
2022-12-25T19:16:43.987Z,87.50
2022-12-25T19:21:40.812Z,87.63
2022-12-25T19:26:37.343Z,88.07
2022-12-25T19:31:38.185Z,86.93
2022-12-25T19:36:36.384Z,86.78
2022-12-25T19:41:39.205Z,86.84
2022-12-25T19:46:39.873Z,87.23
2022-12-25T19:51:40.523Z,87.64
2022-12-25T19:56:37.191Z,88.01
2022-12-25T20:01:38.183Z,88.45
2022-12-25T20:06:37.542Z,89.24
2022-12-25T20:11:34.722Z,89.08
2022-12-25T20:16:31.814Z,88.43
2022-12-25T20:21:29.467Z,88.98
2022-12-25T20:26:27.042Z,89.10
2022-12-25T20:31:26.680Z,88.60
2022-12-25T20:36:23.316Z,87.86
2022-12-25T20:41:29.652Z,89.12
2022-12-25T20:46:26.926Z,88.73
2022-12-25T20:51:24.773Z,88.41
2022-12-25T20:56:23.632Z,87.11
2022-12-25T21:01:22.457Z,88.10
2022-12-25T21:06:19.214Z,86.62
2022-12-25T21:11:17.483Z,86.03
2022-12-25T21:16:16.134Z,87.20
2022-12-25T21:21:13.157Z,87.62
2022-12-25T21:26:17.739Z,87.71
2022-12-25T21:31:15.198Z,87.65
2022-12-25T21:36:13.323Z,87.55
2022-12-25T21:41:10.466Z,86.53
2022-12-25T21:46:08.058Z,85.88
2022-12-25T21:51:25.272Z,88.17
2022-12-25T21:56:21.892Z,87.07
2022-12-25T22:01:18.618Z,88.16
2022-12-25T22:06:36.664Z,89.73
2022-12-25T22:11:51.407Z,90.26
2022-12-25T22:17:06.278Z,89.41
2022-12-25T22:22:04.000Z,89.85
2022-12-25T22:27:00.517Z,87.34
2022-12-25T22:31:57.188Z,88.07
2022-12-25T22:36:58.194Z,85.18
2022-12-25T22:41:55.607Z,84.95
2022-12-25T22:46:52.762Z,86.52
2022-12-25T22:51:49.930Z,87.75
2022-12-25T22:56:47.812Z,87.27
2022-12-25T23:01:45.162Z,87.93
2022-12-25T23:06:42.263Z,88.29
2022-12-25T23:11:38.774Z,86.46
2022-12-25T23:16:35.644Z,87.70
2022-12-25T23:21:54.110Z,86.25
2022-12-25T23:26:50.712Z,86.59
2022-12-25T23:31:52.924Z,86.52
2022-12-25T23:36:50.181Z,87.95
2022-12-25T23:41:49.451Z,87.34
2022-12-25T23:46:52.298Z,86.63
2022-12-25T23:51:50.245Z,85.47
2022-12-25T23:56:46.913Z,84.52
